Latest Weather Observations for Giles*

IDD60801

Issued at 7:01 pm CST Sunday 20 August 2017 (issued every 30 minutes, with the page automatically refreshed every 10 minutes)

About weather observations | Map of weather stations | Latest weather observations for NT | Other Formats
Station Details ID: 013017 Name: GILES METEOROLOGICAL OFFICE Lat: -25.03 Lon: 128.30 Height: 598.0 m
Data from the previous 72 hours. | See also: Recent months at Giles*

* Giles observations are collected in the South Australia time zone, which includes daylight saving in the summer period. Therefore, Rain since 9am value is with respect to South Australia local time.

Date/Time
CST
Temp
°C
App
Temp
°C
Dew
Point
°C
Rel
Hum
%
Delta-T
°C
Wind Press
QNH
hPa
Press
MSL
hPa
Rain since
9am
mm
Dir  Spd
km/h
Gust
km/h
Spd
kts
Gust
kts
20/06:30pm 22.6 17.2 1.5 25 10.1 SW 19 26 10 14 1016.8 1015.5 0.0
20/06:00pm 23.8 18.4 1.1 22 10.9 WSW 19 30 10 16 1016.3 1015.0 0.0
20/05:30pm 24.5 18.8 0.7 21 11.4 WSW 20 33 11 18 1016.1 1014.7 0.0
20/05:00pm 25.1 19.1 0.8 20 11.7 SW 22 33 12 18 1016.0 1014.6 0.0
20/04:30pm 25.4 19.4 1.1 20 11.8 WSW 22 32 12 17 1015.7 1014.3 0.0
20/04:00pm 25.4 19.4 1.1 20 11.8 WSW 22 33 12 18 1015.6 1014.2 0.0
20/03:30pm 26.1 20.5 1.1 19 12.2 WSW 20 37 11 20 1015.6 1014.2 0.0
20/03:00pm 26.5 21.2 1.6 20 12.3 WSW 19 32 10 17 1015.6 1014.2 0.0
20/02:30pm 26.1 20.5 1.4 20 12.1 WSW 20 30 11 16 1015.8 1014.4 0.0
20/02:00pm 25.7 19.8 2.0 21 11.7 W 22 32 12 17 1016.4 1015.1 0.0
20/01:30pm 25.8 20.4 2.2 21 11.7 W 20 32 11 17 1016.6 1015.3 0.0
20/01:00pm 26.1 19.5 1.8 20 12.0 WNW 26 37 14 20 1016.8 1015.5 0.0
20/12:30pm 26.3 20.4 1.8 20 12.1 W 22 35 12 19 1017.1 1015.8 0.0
20/12:00pm 26.4 21.1 2.0 20 12.1 WNW 19 32 10 17 1017.5 1016.1 0.0
20/11:30am 25.2 19.9 2.1 22 11.4 WSW 19 26 10 14 1017.8 1016.5 0.0
20/11:16am 25.4 17.2 0.3 19 12.0 NNW 33 50 18 27 1018.0 1016.7 0.0
20/11:00am 25.6 17.4 -1.3 17 12.5 NNW 32 44 17 24 1018.0 1016.7 0.0
20/10:30am 25.2 16.7 -1.8 16 12.4 NNW 33 44 18 24 1018.1 1016.8 0.0
20/10:00am 23.6 13.6 -1.3 19 11.4 N 41 54 22 29 1018.0 1016.7 0.0
20/09:30am 22.7 14.4 -0.1 22 10.6 N 33 46 18 25 1017.9 1016.6 0.0
20/09:00am 21.8 15.7 0.3 24 10.0 N 22 33 12 18 1018.3 1017.0 0.0
20/08:30am 19.7 16.2 1.2 29 8.6 N 9 11 5 6 1018.4 1017.1 0.0
20/08:00am 18.9 13.4 0.8 29 8.3 W 19 28 10 15 1018.2 1016.9 0.0
20/07:30am 20.0 12.0 0.1 26 9.1 N 32 41 17 22 1016.5 1015.2 0.0
20/07:00am 19.9 13.0 0.3 27 9.0 N 26 33 14 18 1016.3 1015.0 0.0
20/06:30am 20.1 13.6 0.3 26 9.1 N 24 33 13 18 1016.2 1014.9 0.0
20/06:00am 20.0 14.8 0.1 26 9.1 N 17 26 9 14 1015.9 1014.5 0.0
20/05:30am 21.0 14.4 -0.5 23 9.8 N 24 33 13 18 1015.8 1014.4 0.0
20/05:00am 21.8 14.4 -0.8 22 10.3 N 28 33 15 18 1015.6 1014.2 0.0
20/04:30am 22.3 15.3 -0.5 22 10.5 N 26 35 14 19 1015.4 1014.1 0.0
20/04:00am 22.5 16.3 -0.5 21 10.6 N 22 35 12 19 1015.4 1014.1 0.0
20/03:30am 23.4 16.5 -0.1 21 11.0 N 26 35 14 19 1015.3 1014.0 0.0
20/03:00am 24.1 16.7 -0.6 19 11.5 N 28 41 15 22 1015.7 1014.3 0.0
20/02:30am 24.6 17.2 -0.7 19 11.8 NNE 28 41 15 22 1015.9 1014.5 0.0
20/02:00am 25.1 17.7 -0.8 18 12.1 NNE 28 44 15 24 1016.1 1014.7 0.0
20/01:30am 24.8 18.6 -0.2 19 11.8 NNE 22 32 12 17 1016.5 1015.2 0.0
20/01:00am 25.0 18.5 0.2 19 11.8 NNE 24 35 13 19 1016.6 1015.3 0.0
20/12:30am 25.2 18.7 0.2 19 11.9 NNE 24 32 13 17 1016.8 1015.5 0.0
20/12:00am 25.1 19.1 0.8 20 11.7 NNE 22 30 12 16 1017.1 1015.8 0.0
 
Date/Time
CST
Temp
°C
App
Temp
°C
Dew
Point
°C
Rel
Hum
%
Delta-T
°C
Wind Press
QNH
hPa
Press
MSL
hPa
Rain since
9am
mm
Dir  Spd
km/h
Gust
km/h
Spd
kts
Gust
kts
19/11:30pm 25.3 19.6 0.5 19 11.9 NNE 20 28 11 15 1017.5 1016.1 0.0
19/11:00pm 25.3 19.3 1.2 20 11.7 NNE 22 33 12 18 1017.7 1016.4 0.0
19/10:30pm 25.8 20.1 0.4 19 12.2 NNE 20 28 11 15 1017.9 1016.6 0.0
19/10:00pm 26.1 20.4 0.3 18 12.4 NNE 20 32 11 17 1017.9 1016.6 0.0
19/09:30pm 26.0 20.5 0.8 19 12.2 NNE 19 26 10 14 1017.9 1016.6 0.0
19/09:00pm 25.3 20.0 1.6 21 11.6 NNE 19 26 10 14 1017.7 1016.4 0.0
19/08:30pm 25.3 20.7 1.6 21 11.6 NNE 15 20 8 11 1017.6 1016.3 0.0
19/08:00pm 25.5 21.2 1.3 20 11.8 NE 13 20 7 11 1017.5 1016.1 0.0
19/07:30pm 25.3 20.8 1.9 21 11.5 NE 15 20 8 11 1017.3 1015.9 0.0
19/07:00pm 26.1 21.1 1.4 20 12.1 NE 17 20 9 11 1016.8 1015.5 0.0
19/06:30pm 26.7 22.5 1.6 19 12.4 NE 13 20 7 11 1016.8 1015.5 0.0
19/06:00pm 27.6 22.1 0.5 17 13.2 NNE 19 28 10 15 1016.9 1015.6 0.0
19/05:30pm 27.6 22.0 0.1 16 13.3 NNE 19 28 10 15 1016.8 1015.5 0.0
19/05:00pm 28.2 22.3 -0.5 15 13.8 NNE 20 32 11 17 1016.9 1015.6 0.0
19/04:30pm 28.5 21.4 -1.0 14 14.1 N 26 37 14 20 1016.9 1015.6 0.0
19/04:00pm 28.7 22.0 -1.0 14 14.2 N 24 35 13 19 1016.9 1015.6 0.0
19/03:30pm 28.8 22.1 -1.2 14 14.3 N 24 33 13 18 1017.1 1015.8 0.0
19/03:00pm 28.3 21.2 -1.6 14 14.1 NNE 26 37 14 20 1017.5 1016.1 0.0
19/02:30pm 28.0 20.5 -1.5 14 13.9 NNE 28 37 15 20 1017.9 1016.6 0.0
19/02:00pm 27.3 20.1 -1.9 14 13.6 NNE 26 37 14 20 1018.4 1017.1 0.0
19/01:30pm 27.0 19.8 -2.2 14 13.5 NNE 26 35 14 19 1018.7 1017.4 0.0
19/01:00pm 25.8 18.6 -1.7 16 12.7 NNE 26 41 14 22 1019.6 1018.3 0.0
19/12:30pm 25.1 17.5 -2.1 16 12.4 NNE 28 39 15 21 1020.1 1018.8 0.0
19/12:00pm 24.9 18.4 -2.2 16 12.3 NE 22 33 12 18 1020.6 1019.4 0.0
19/11:30am 24.1 18.1 -1.9 17 11.8 NE 20 28 11 15 1021.4 1020.1 0.0
19/11:00am 23.2 17.1 -2.3 18 11.4 NE 20 30 11 16 1021.9 1020.6 0.0
19/10:30am 22.7 16.7 -2.7 18 11.2 NE 19 32 10 17 1022.4 1021.2 0.0
19/10:00am 21.9 15.7 -2.8 19 10.8 ENE 20 28 11 15 1022.4 1021.2 0.0
19/09:30am 20.4 14.2 -3.2 20 10.1 E 20 28 11 15 1022.4 1021.2 0.0
19/09:00am 18.6 12.0 -3.3 22 9.2 E 22 28 12 15 1022.2 1021.0 0.0
19/08:30am 16.8 9.4 -3.3 25 8.3 E 26 33 14 18 1021.9 1020.6 0.0
19/08:00am 15.4 7.7 -2.8 28 7.5 E 28 33 15 18 1021.7 1020.4 0.0
19/07:30am 14.8 7.9 -2.8 29 7.2 E 24 32 13 17 1021.8 1020.5 0.0
19/07:00am 15.0 8.1 -2.4 30 7.2 ENE 24 32 13 17 1021.6 1020.3 0.0
19/06:30am 15.1 8.2 -2.6 29 7.3 E 24 32 13 17 1021.5 1020.2 0.0
19/06:00am 15.3 8.0 -2.6 29 7.4 ENE 26 35 14 19 1021.3 1020.0 0.0
19/05:30am 15.6 8.3 -2.8 28 7.6 ENE 26 35 14 19 1021.2 1019.9 0.0
19/05:00am 16.0 7.9 -2.8 27 7.8 ENE 30 39 16 21 1020.7 1019.5 0.0
19/04:30am 15.8 8.5 -2.8 27 7.7 ENE 26 33 14 18 1020.9 1019.6 0.0
19/04:00am 16.1 9.9 -3.0 27 7.9 ENE 20 30 11 16 1021.0 1019.7 0.0
19/03:30am 15.7 10.5 -2.6 28 7.6 ENE 15 22 8 12 1021.1 1019.8 0.0
19/03:00am 16.3 9.3 -3.9 25 8.2 E 24 35 13 19 1021.1 1019.8 0.0
19/02:30am 16.8 9.3 -4.1 23 8.5 E 26 33 14 18 1021.1 1019.8 0.0
19/02:00am 17.3 10.2 -4.3 22 8.8 E 24 33 13 18 1021.3 1020.0 0.0
19/01:30am 17.6 10.1 -4.6 21 9.0 E 26 35 14 19 1021.4 1020.1 0.0
19/01:00am 18.1 10.2 -4.8 20 9.3 E 28 37 15 20 1021.4 1020.1 0.0
19/12:30am 18.4 11.3 -4.1 21 9.3 E 24 35 13 19 1021.4 1020.1 0.0
19/12:00am 18.6 11.5 -4.1 21 9.4 E 24 33 13 18 1021.5 1020.2 0.0
 
Date/Time
CST
Temp
°C
App
Temp
°C
Dew
Point
°C
Rel
Hum
%
Delta-T
°C
Wind Press
QNH
hPa
Press
MSL
hPa
Rain since
9am
mm
Dir  Spd
km/h
Gust
km/h
Spd
kts
Gust
kts
18/11:30pm 18.8 12.2 -3.2 22 9.3 E 22 33 12 18 1021.6 1020.3 0.0
18/11:00pm 19.7 12.8 -3.0 21 9.7 E 24 32 13 17 1021.6 1020.3 0.0
18/10:30pm 20.3 13.8 -2.1 22 9.8 E 22 28 12 15 1021.6 1020.3 0.0
18/10:00pm 20.4 14.4 -1.5 23 9.7 E 20 28 11 15 1021.6 1020.3 0.0
18/09:30pm 21.6 15.6 -1.3 21 10.3 ENE 20 28 11 15 1021.6 1020.3 0.0
18/09:00pm 21.1 16.6 0.0 24 9.7 ENE 13 17 7 9 1021.5 1020.2 0.0
18/08:30pm 21.9 17.5 0.4 24 10.0 ENE 13 17 7 9 1021.1 1019.8 0.0
18/08:00pm 22.0 18.1 1.0 25 9.9 ENE 11 15 6 8 1020.9 1019.6 0.0
18/07:30pm 22.6 18.8 1.8 25 10.0 ENE 11 13 6 7 1020.4 1019.1 0.0
18/07:00pm 23.5 20.2 2.5 25 10.3 NE 9 13 5 7 1020.0 1018.7 0.0
18/06:30pm 25.5 22.1 1.9 21 11.6 NE 9 11 5 6 1019.7 1018.4 0.0
18/06:00pm 26.5 22.5 0.7 18 12.5 NNE 11 17 6 9 1019.3 1018.0 0.0
18/05:30pm 26.7 23.8 1.2 19 12.5 SSE 6 11 3 6 1019.1 1017.8 0.0
18/05:00pm 27.6 25.2 2.0 19 12.8 NNE 4 9 2 5 1019.1 1017.8 0.0
18/04:30pm 27.7 24.6 0.3 17 13.3 W 6 9 3 5 1019.2 1017.9 0.0
18/04:00pm 26.8 23.8 1.0 18 12.6 WNW 6 11 3 6 1019.3 1018.0 0.0
18/03:30pm 27.4 23.8 0.8 17 13.0 NNW 9 15 5 8 1019.4 1018.1 0.0
18/03:00pm 26.6 21.9 0.6 18 12.6 N 15 24 8 13 1019.6 1018.3 0.0
18/02:30pm 26.7 21.9 0.0 17 12.8 N 15 22 8 12 1019.9 1018.6 0.0
18/02:00pm 26.7 22.1 -0.8 16 13.0 NE 13 24 7 13 1020.1 1018.8 0.0
18/01:30pm 25.7 21.6 0.1 18 12.2 N 11 22 6 12 1020.6 1019.4 0.0
18/01:00pm 24.6 19.1 -2.0 17 12.1 NNE 17 22 9 12 1021.2 1019.9 0.0
18/12:30pm 24.7 19.9 -2.2 16 12.2 E 13 20 7 11 1021.6 1020.3 0.0
18/12:00pm 23.3 17.4 -2.5 18 11.5 ENE 19 28 10 15 1022.0 1020.8 0.0
18/11:30am 22.3 15.1 -2.3 19 10.9 ENE 26 33 14 18 1022.4 1021.2 0.0
18/11:00am 21.6 15.0 -3.5 18 10.8 E 22 32 12 17 1022.8 1021.5 0.0
18/10:30am 20.4 12.6 -3.6 19 10.2 ENE 28 39 15 21 1022.9 1021.6 0.0
18/10:00am 19.3 12.3 -3.9 20 9.7 ENE 24 37 13 20 1022.7 1021.4 0.0
18/09:30am 18.4 12.2 -3.3 22 9.1 ENE 20 35 11 19 1022.5 1021.3 0.0
18/09:00am 16.6 10.4 -2.9 26 8.1 E 20 30 11 16 1022.3 1021.1 0.0
18/08:30am 13.1 9.1 -2.0 35 6.2 SE 9 13 5 7 1021.9 1020.6 0.0
18/08:00am 10.1 6.5 -2.0 42 4.8 SE 7 11 4 6 1021.7 1020.4 0.0
18/07:30am 8.4 4.4 -2.1 47 4.1 SSE 9 13 5 7 1021.3 1020.0 0.0
18/07:00am 9.8 6.1 -2.8 41 4.9 ESE 7 11 4 6 1020.9 1019.6 0.0
18/06:30am 8.6 4.9 -2.5 45 4.3 SSE 7 11 4 6 1020.5 1019.3 0.0
18/06:00am 9.4 5.9 -1.3 47 4.3 ESE 7 9 4 5 1020.2 1018.9 0.0
18/05:30am 10.0 6.0 -2.1 42 4.8 E 9 15 5 8 1019.9 1018.6 0.0
18/05:00am 9.6 5.2 -2.7 42 4.8 ESE 11 15 6 8 1019.7 1018.4 0.0
18/04:30am 9.5 4.3 -2.9 41 4.8 ESE 15 20 8 11 1019.6 1018.3 0.0
18/04:00am 10.4 4.4 -2.9 39 5.2 ESE 19 22 10 12 1019.7 1018.4 0.0
18/03:30am 10.6 5.0 -2.9 38 5.3 ESE 17 20 9 11 1019.7 1018.4 0.0
18/03:00am 10.7 5.1 -3.2 37 5.4 SE 17 20 9 11 1019.7 1018.4 0.0
18/02:30am 10.8 5.6 -3.0 38 5.4 ESE 15 20 8 11 1020.0 1018.7 0.0
18/02:00am 11.4 5.8 -3.1 36 5.7 ESE 17 20 9 11 1020.1 1018.8 0.0
18/01:30am 11.5 5.9 -3.3 35 5.8 ESE 17 20 9 11 1020.3 1019.0 0.0
18/01:00am 11.5 6.7 -2.9 36 5.7 ESE 13 15 7 8 1020.5 1019.3 0.0
18/12:30am 12.0 7.2 -2.8 35 5.9 E 13 15 7 8 1020.7 1019.5 0.0
18/12:00am 12.8 8.0 -2.9 33 6.3 ESE 13 15 7 8 1021.0 1019.7 0.0
 
Date/Time
CST
Temp
°C
App
Temp
°C
Dew
Point
°C
Rel
Hum
%
Delta-T
°C
Wind Press
QNH
hPa
Press
MSL
hPa
Rain since
9am
mm
Dir  Spd
km/h
Gust
km/h
Spd
kts
Gust
kts
17/11:30pm 13.6 8.4 -3.0 31 6.7 SE 15 20 8 11 1021.1 1019.8 0.0
17/11:00pm 13.5 9.1 -2.8 32 6.6 ESE 11 13 6 7 1021.1 1019.8 0.0
17/10:30pm 14.3 9.4 -3.7 28 7.2 ESE 13 17 7 9 1021.1 1019.8 0.0
17/10:00pm 15.3 10.4 -3.8 26 7.7 SE 13 19 7 10 1021.0 1019.7 0.0
17/09:30pm 15.9 10.9 -4.3 24 8.1 SSE 13 19 7 10 1020.7 1019.5 0.0
17/09:00pm 16.3 10.9 -4.7 23 8.4 SSE 15 20 8 11 1020.4 1019.1 0.0
17/08:30pm 15.7 10.8 -3.8 26 7.9 SSE 13 15 7 8 1020.0 1018.7 0.0
17/08:00pm 16.3 11.4 -3.8 25 8.2 SSE 13 15 7 8 1019.6 1018.3 0.0
17/07:30pm 17.2 12.6 -3.7 23 8.6 S 11 15 6 8 1019.4 1018.1 0.0

Other Formats:

Comma delimited format used in spreadsheet applications
http://www.bom.gov.au/fwo/IDD60801/IDD60801.94461.axf

JavaScript Object Notation format (JSON) in row-major order
http://www.bom.gov.au/fwo/IDD60801/IDD60801.94461.json